sensor_id;sensor_type;location;lat;lon;timestamp;temperature;humidity
32293;DHT22;43233;48.608;8.838;2023-03-02T00:01:51;2.10;54.80
32293;DHT22;43233;48.608;8.838;2023-03-02T00:04:27;2.10;55.00
32293;DHT22;43233;48.608;8.838;2023-03-02T00:06:57;2.10;55.00
32293;DHT22;43233;48.608;8.838;2023-03-02T00:09:24;2.10;55.30
32293;DHT22;43233;48.608;8.838;2023-03-02T00:11:50;2.00;55.40
32293;DHT22;43233;48.608;8.838;2023-03-02T00:14:16;2.00;55.20
32293;DHT22;43233;48.608;8.838;2023-03-02T00:16:42;2.00;55.30
32293;DHT22;43233;48.608;8.838;2023-03-02T00:19:07;2.00;55.20
32293;DHT22;43233;48.608;8.838;2023-03-02T00:21:33;2.00;55.40
32293;DHT22;43233;48.608;8.838;2023-03-02T00:23:59;2.00;55.50
32293;DHT22;43233;48.608;8.838;2023-03-02T00:26:24;2.00;55.50
32293;DHT22;43233;48.608;8.838;2023-03-02T00:28:50;1.90;55.70
32293;DHT22;43233;48.608;8.838;2023-03-02T00:31:16;1.90;55.70
32293;DHT22;43233;48.608;8.838;2023-03-02T00:33:41;1.90;55.80
32293;DHT22;43233;48.608;8.838;2023-03-02T00:36:15;1.90;56.00
32293;DHT22;43233;48.608;8.838;2023-03-02T00:38:40;1.90;56.00
32293;DHT22;43233;48.608;8.838;2023-03-02T00:41:06;1.80;56.10
32293;DHT22;43233;48.608;8.838;2023-03-02T00:43:32;1.80;56.30
32293;DHT22;43233;48.608;8.838;2023-03-02T00:45:57;1.80;56.40
32293;DHT22;43233;48.608;8.838;2023-03-02T00:48:23;1.70;56.40
32293;DHT22;43233;48.608;8.838;2023-03-02T00:50:49;1.70;56.50
32293;DHT22;43233;48.608;8.838;2023-03-02T00:53:14;1.70;56.60
32293;DHT22;43233;48.608;8.838;2023-03-02T00:55:40;1.70;57.60
32293;DHT22;43233;48.608;8.838;2023-03-02T00:58:05;1.70;57.00
32293;DHT22;43233;48.608;8.838;2023-03-02T01:00:31;1.60;57.00
32293;DHT22;43233;48.608;8.838;2023-03-02T01:02:58;1.60;57.00
32293;DHT22;43233;48.608;8.838;2023-03-02T01:05:24;1.60;57.20
32293;DHT22;43233;48.608;8.838;2023-03-02T01:07:49;1.60;57.30
32293;DHT22;43233;48.608;8.838;2023-03-02T01:10:15;1.60;57.40
32293;DHT22;43233;48.608;8.838;2023-03-02T01:12:41;1.50;57.70
32293;DHT22;43233;48.608;8.838;2023-03-02T01:15:08;1.50;57.80
32293;DHT22;43233;48.608;8.838;2023-03-02T01:17:34;1.50;58.40
32293;DHT22;43233;48.608;8.838;2023-03-02T01:20:00;1.40;59.10
32293;DHT22;43233;48.608;8.838;2023-03-02T01:22:26;1.40;59.10
32293;DHT22;43233;48.608;8.838;2023-03-02T01:24:52;1.30;59.00
32293;DHT22;43233;48.608;8.838;2023-03-02T01:27:18;1.40;58.80
32293;DHT22;43233;48.608;8.838;2023-03-02T01:29:44;1.40;58.80
32293;DHT22;43233;48.608;8.838;2023-03-02T01:32:09;1.30;59.20
32293;DHT22;43233;48.608;8.838;2023-03-02T01:34:35;1.30;59.00
32293;DHT22;43233;48.608;8.838;2023-03-02T01:37:01;1.30;58.90
32293;DHT22;43233;48.608;8.838;2023-03-02T01:39:26;1.30;58.90
32293;DHT22;43233;48.608;8.838;2023-03-02T01:48:21;1.30;59.20
32293;DHT22;43233;48.608;8.838;2023-03-02T01:50:48;1.20;59.30
32293;DHT22;43233;48.608;8.838;2023-03-02T01:53:15;1.20;59.30
32293;DHT22;43233;48.608;8.838;2023-03-02T01:55:41;1.20;59.20
32293;DHT22;43233;48.608;8.838;2023-03-02T01:58:09;1.20;59.30
32293;DHT22;43233;48.608;8.838;2023-03-02T02:00:37;1.20;59.20
32293;DHT22;43233;48.608;8.838;2023-03-02T02:03:15;1.20;59.50
32293;DHT22;43233;48.608;8.838;2023-03-02T02:05:48;1.10;60.30
32293;DHT22;43233;48.608;8.838;2023-03-02T02:08:16;1.20;59.60
32293;DHT22;43233;48.608;8.838;2023-03-02T02:10:41;1.10;59.90
32293;DHT22;43233;48.608;8.838;2023-03-02T02:13:10;1.10;60.10
32293;DHT22;43233;48.608;8.838;2023-03-02T02:15:36;1.10;60.30
32293;DHT22;43233;48.608;8.838;2023-03-02T02:18:03;1.10;60.20
32293;DHT22;43233;48.608;8.838;2023-03-02T02:20:42;1.10;60.20
32293;DHT22;43233;48.608;8.838;2023-03-02T02:23:32;1.10;60.60
32293;DHT22;43233;48.608;8.838;2023-03-02T02:26:06;1.00;60.60
32293;DHT22;43233;48.608;8.838;2023-03-02T02:28:39;1.00;60.80
32293;DHT22;43233;48.608;8.838;2023-03-02T02:31:20;1.00;61.00
32293;DHT22;43233;48.608;8.838;2023-03-02T02:33:50;1.00;60.90
32293;DHT22;43233;48.608;8.838;2023-03-02T02:36:23;1.10;61.20
32293;DHT22;43233;48.608;8.838;2023-03-02T02:38:53;1.00;61.20
32293;DHT22;43233;48.608;8.838;2023-03-02T02:41:25;1.10;61.20
32293;DHT22;43233;48.608;8.838;2023-03-02T02:43:52;1.10;61.30
32293;DHT22;43233;48.608;8.838;2023-03-02T02:46:19;1.10;61.40
32293;DHT22;43233;48.608;8.838;2023-03-02T02:48:45;1.10;61.30
32293;DHT22;43233;48.608;8.838;2023-03-02T02:51:20;1.10;61.30
32293;DHT22;43233;48.608;8.838;2023-03-02T02:54:05;1.10;61.50
32293;DHT22;43233;48.608;8.838;2023-03-02T02:56:36;1.10;61.70
32293;DHT22;43233;48.608;8.838;2023-03-02T02:59:18;1.10;61.70
32293;DHT22;43233;48.608;8.838;2023-03-02T03:01:46;1.10;61.70
32293;DHT22;43233;48.608;8.838;2023-03-02T03:04:17;1.10;61.70
32293;DHT22;43233;48.608;8.838;2023-03-02T03:06:51;1.00;61.90
32293;DHT22;43233;48.608;8.838;2023-03-02T03:09:18;1.00;62.00
32293;DHT22;43233;48.608;8.838;2023-03-02T03:11:46;1.00;62.20
32293;DHT22;43233;48.608;8.838;2023-03-02T03:14:20;1.00;62.20
32293;DHT22;43233;48.608;8.838;2023-03-02T03:16:47;1.00;62.40
32293;DHT22;43233;48.608;8.838;2023-03-02T03:19:25;1.00;62.30
32293;DHT22;43233;48.608;8.838;2023-03-02T03:21:54;1.00;62.30
32293;DHT22;43233;48.608;8.838;2023-03-02T03:24:20;1.00;62.30
32293;DHT22;43233;48.608;8.838;2023-03-02T03:26:46;1.00;62.50
32293;DHT22;43233;48.608;8.838;2023-03-02T03:29:13;1.00;62.40
32293;DHT22;43233;48.608;8.838;2023-03-02T03:31:40;1.00;62.70
32293;DHT22;43233;48.608;8.838;2023-03-02T03:34:06;1.00;62.70
32293;DHT22;43233;48.608;8.838;2023-03-02T03:36:32;0.90;62.60
32293;DHT22;43233;48.608;8.838;2023-03-02T03:38:59;1.00;62.50
32293;DHT22;43233;48.608;8.838;2023-03-02T03:41:26;1.00;62.40
32293;DHT22;43233;48.608;8.838;2023-03-02T03:43:52;1.00;62.40
32293;DHT22;43233;48.608;8.838;2023-03-02T03:46:17;1.00;62.30
32293;DHT22;43233;48.608;8.838;2023-03-02T03:48:43;1.00;62.30
32293;DHT22;43233;48.608;8.838;2023-03-02T03:51:09;1.00;62.70
32293;DHT22;43233;48.608;8.838;2023-03-02T03:53:35;0.90;62.60
32293;DHT22;43233;48.608;8.838;2023-03-02T03:56:01;1.00;62.50
32293;DHT22;43233;48.608;8.838;2023-03-02T03:58:29;1.00;62.50
32293;DHT22;43233;48.608;8.838;2023-03-02T04:00:56;1.00;62.60
32293;DHT22;43233;48.608;8.838;2023-03-02T04:03:22;0.90;62.50
32293;DHT22;43233;48.608;8.838;2023-03-02T04:05:48;0.90;62.60
32293;DHT22;43233;48.608;8.838;2023-03-02T04:08:14;0.90;62.50
32293;DHT22;43233;48.608;8.838;2023-03-02T04:10:40;0.90;62.70
32293;DHT22;43233;48.608;8.838;2023-03-02T04:13:06;0.90;62.80
32293;DHT22;43233;48.608;8.838;2023-03-02T04:15:31;0.90;62.60
32293;DHT22;43233;48.608;8.838;2023-03-02T04:17:57;0.90;62.70
32293;DHT22;43233;48.608;8.838;2023-03-02T04:20:24;0.90;62.80
32293;DHT22;43233;48.608;8.838;2023-03-02T04:22:51;0.80;63.00
32293;DHT22;43233;48.608;8.838;2023-03-02T04:25:20;0.80;63.20
32293;DHT22;43233;48.608;8.838;2023-03-02T04:27:47;0.80;63.20
32293;DHT22;43233;48.608;8.838;2023-03-02T04:30:16;0.80;63.50
32293;DHT22;43233;48.608;8.838;2023-03-02T04:32:43;0.80;63.40
32293;DHT22;43233;48.608;8.838;2023-03-02T04:35:10;0.80;63.70
32293;DHT22;43233;48.608;8.838;2023-03-02T04:37:36;0.80;63.70
32293;DHT22;43233;48.608;8.838;2023-03-02T04:40:02;0.80;63.80
32293;DHT22;43233;48.608;8.838;2023-03-02T04:42:28;0.70;64.10
32293;DHT22;43233;48.608;8.838;2023-03-02T04:44:54;0.70;64.40
32293;DHT22;43233;48.608;8.838;2023-03-02T04:47:19;0.70;64.30
32293;DHT22;43233;48.608;8.838;2023-03-02T04:49:45;0.70;64.30
32293;DHT22;43233;48.608;8.838;2023-03-02T04:52:11;0.70;64.40
32293;DHT22;43233;48.608;8.838;2023-03-02T04:54:36;0.70;64.70
32293;DHT22;43233;48.608;8.838;2023-03-02T04:57:02;0.70;64.60
32293;DHT22;43233;48.608;8.838;2023-03-02T04:59:28;0.70;64.70
32293;DHT22;43233;48.608;8.838;2023-03-02T05:01:56;0.70;65.10
32293;DHT22;43233;48.608;8.838;2023-03-02T05:04:22;0.70;65.30
32293;DHT22;43233;48.608;8.838;2023-03-02T05:06:48;0.70;65.50
32293;DHT22;43233;48.608;8.838;2023-03-02T05:09:14;0.70;65.20
32293;DHT22;43233;48.608;8.838;2023-03-02T05:11:40;0.70;65.20
32293;DHT22;43233;48.608;8.838;2023-03-02T05:14:10;0.70;65.20
32293;DHT22;43233;48.608;8.838;2023-03-02T05:16:37;0.70;65.30
32293;DHT22;43233;48.608;8.838;2023-03-02T05:19:06;0.70;65.40
32293;DHT22;43233;48.608;8.838;2023-03-02T05:21:32;0.70;65.30
32293;DHT22;43233;48.608;8.838;2023-03-02T05:23:58;0.70;65.20
32293;DHT22;43233;48.608;8.838;2023-03-02T05:26:24;0.70;65.30
32293;DHT22;43233;48.608;8.838;2023-03-02T05:28:49;0.70;66.10
32293;DHT22;43233;48.608;8.838;2023-03-02T05:31:28;0.60;66.30
32293;DHT22;43233;48.608;8.838;2023-03-02T05:33:54;0.60;65.80
32293;DHT22;43233;48.608;8.838;2023-03-02T05:36:19;0.60;65.70
32293;DHT22;43233;48.608;8.838;2023-03-02T05:38:45;0.70;65.70
32293;DHT22;43233;48.608;8.838;2023-03-02T05:41:11;0.60;65.60
32293;DHT22;43233;48.608;8.838;2023-03-02T05:43:36;0.60;65.40
32293;DHT22;43233;48.608;8.838;2023-03-02T05:46:02;0.70;65.80
32293;DHT22;43233;48.608;8.838;2023-03-02T05:48:29;0.70;65.50
32293;DHT22;43233;48.608;8.838;2023-03-02T05:50:55;0.70;65.80
32293;DHT22;43233;48.608;8.838;2023-03-02T05:53:21;0.70;65.60
32293;DHT22;43233;48.608;8.838;2023-03-02T05:55:47;0.70;65.60
32293;DHT22;43233;48.608;8.838;2023-03-02T05:58:15;0.70;65.60
32293;DHT22;43233;48.608;8.838;2023-03-02T06:00:42;0.70;66.40
32293;DHT22;43233;48.608;8.838;2023-03-02T06:03:07;0.70;65.60
32293;DHT22;43233;48.608;8.838;2023-03-02T06:05:34;0.70;65.60
32293;DHT22;43233;48.608;8.838;2023-03-02T06:08:00;0.70;65.60
32293;DHT22;43233;48.608;8.838;2023-03-02T06:10:26;0.70;65.40
32293;DHT22;43233;48.608;8.838;2023-03-02T06:12:51;0.70;65.60
32293;DHT22;43233;48.608;8.838;2023-03-02T06:15:17;0.70;65.90
32293;DHT22;43233;48.608;8.838;2023-03-02T06:17:43;0.70;65.80
32293;DHT22;43233;48.608;8.838;2023-03-02T06:20:09;0.70;66.10
32293;DHT22;43233;48.608;8.838;2023-03-02T06:22:43;0.70;66.10
32293;DHT22;43233;48.608;8.838;2023-03-02T06:25:15;0.70;66.20
32293;DHT22;43233;48.608;8.838;2023-03-02T06:27:42;0.60;66.20
32293;DHT22;43233;48.608;8.838;2023-03-02T06:30:13;0.60;66.20
32293;DHT22;43233;48.608;8.838;2023-03-02T06:32:39;0.70;66.20
32293;DHT22;43233;48.608;8.838;2023-03-02T06:35:06;0.60;66.30
32293;DHT22;43233;48.608;8.838;2023-03-02T06:37:32;0.60;66.60
32293;DHT22;43233;48.608;8.838;2023-03-02T06:39:58;0.60;66.50
32293;DHT22;43233;48.608;8.838;2023-03-02T06:42:25;0.60;66.70
32293;DHT22;43233;48.608;8.838;2023-03-02T06:44:51;0.60;67.00
32293;DHT22;43233;48.608;8.838;2023-03-02T06:47:19;0.60;67.20
32293;DHT22;43233;48.608;8.838;2023-03-02T06:49:44;0.70;67.10
32293;DHT22;43233;48.608;8.838;2023-03-02T06:52:10;0.60;66.90
32293;DHT22;43233;48.608;8.838;2023-03-02T06:54:38;0.70;67.10
32293;DHT22;43233;48.608;8.838;2023-03-02T06:57:03;0.70;66.80
32293;DHT22;43233;48.608;8.838;2023-03-02T06:59:29;0.70;66.70
32293;DHT22;43233;48.608;8.838;2023-03-02T07:01:54;0.70;67.00
32293;DHT22;43233;48.608;8.838;2023-03-02T07:04:20;0.70;66.70
32293;DHT22;43233;48.608;8.838;2023-03-02T07:06:46;0.70;66.90
32293;DHT22;43233;48.608;8.838;2023-03-02T07:09:12;0.80;67.20
32293;DHT22;43233;48.608;8.838;2023-03-02T07:11:38;0.80;66.90
32293;DHT22;43233;48.608;8.838;2023-03-02T07:14:03;0.80;67.00
32293;DHT22;43233;48.608;8.838;2023-03-02T07:16:29;0.80;66.90
32293;DHT22;43233;48.608;8.838;2023-03-02T07:18:55;0.80;67.20
32293;DHT22;43233;48.608;8.838;2023-03-02T07:21:21;0.80;67.30
32293;DHT22;43233;48.608;8.838;2023-03-02T07:23:47;0.80;67.60
32293;DHT22;43233;48.608;8.838;2023-03-02T07:26:12;0.80;67.80
32293;DHT22;43233;48.608;8.838;2023-03-02T07:28:40;0.80;68.10
32293;DHT22;43233;48.608;8.838;2023-03-02T07:31:07;0.80;68.00
32293;DHT22;43233;48.608;8.838;2023-03-02T07:33:34;0.90;67.90
32293;DHT22;43233;48.608;8.838;2023-03-02T07:36:00;0.80;68.40
32293;DHT22;43233;48.608;8.838;2023-03-02T07:38:26;0.80;68.60
32293;DHT22;43233;48.608;8.838;2023-03-02T07:40:52;0.80;68.40
32293;DHT22;43233;48.608;8.838;2023-03-02T07:43:18;0.90;68.40
32293;DHT22;43233;48.608;8.838;2023-03-02T07:45:44;0.80;68.60
32293;DHT22;43233;48.608;8.838;2023-03-02T07:48:09;0.90;68.80
32293;DHT22;43233;48.608;8.838;2023-03-02T07:50:35;0.90;68.80
32293;DHT22;43233;48.608;8.838;2023-03-02T07:53:01;0.90;68.20
32293;DHT22;43233;48.608;8.838;2023-03-02T07:55:26;1.00;68.20
32293;DHT22;43233;48.608;8.838;2023-03-02T07:57:52;1.00;68.20
32293;DHT22;43233;48.608;8.838;2023-03-02T08:00:18;1.10;68.30
32293;DHT22;43233;48.608;8.838;2023-03-02T08:02:44;1.00;68.70
32293;DHT22;43233;48.608;8.838;2023-03-02T08:05:11;1.10;68.50
32293;DHT22;43233;48.608;8.838;2023-03-02T08:07:36;1.10;68.60
32293;DHT22;43233;48.608;8.838;2023-03-02T08:10:03;1.10;68.70
32293;DHT22;43233;48.608;8.838;2023-03-02T08:12:29;1.20;68.80
32293;DHT22;43233;48.608;8.838;2023-03-02T08:14:55;1.20;68.60
32293;DHT22;43233;48.608;8.838;2023-03-02T08:17:21;1.20;68.80
32293;DHT22;43233;48.608;8.838;2023-03-02T08:19:47;1.30;68.50
32293;DHT22;43233;48.608;8.838;2023-03-02T08:22:12;1.30;68.40
32293;DHT22;43233;48.608;8.838;2023-03-02T08:24:38;1.40;68.00
32293;DHT22;43233;48.608;8.838;2023-03-02T08:27:06;1.40;68.00
32293;DHT22;43233;48.608;8.838;2023-03-02T08:29:32;1.50;67.80
32293;DHT22;43233;48.608;8.838;2023-03-02T08:31:58;1.50;67.40
32293;DHT22;43233;48.608;8.838;2023-03-02T08:34:24;1.50;67.40
32293;DHT22;43233;48.608;8.838;2023-03-02T08:36:51;1.60;67.20
32293;DHT22;43233;48.608;8.838;2023-03-02T08:39:17;1.70;67.10
32293;DHT22;43233;48.608;8.838;2023-03-02T08:41:42;1.80;66.90
32293;DHT22;43233;48.608;8.838;2023-03-02T08:44:08;1.80;66.50
32293;DHT22;43233;48.608;8.838;2023-03-02T08:46:34;1.80;65.90
32293;DHT22;43233;48.608;8.838;2023-03-02T08:48:59;1.80;65.90
32293;DHT22;43233;48.608;8.838;2023-03-02T08:51:25;1.90;66.10
32293;DHT22;43233;48.608;8.838;2023-03-02T08:53:53;1.80;66.10
32293;DHT22;43233;48.608;8.838;2023-03-02T08:56:26;1.80;66.50
32293;DHT22;43233;48.608;8.838;2023-03-02T08:58:53;1.90;66.30
32293;DHT22;43233;48.608;8.838;2023-03-02T09:01:25;1.90;66.00
32293;DHT22;43233;48.608;8.838;2023-03-02T09:03:51;1.90;66.00
32293;DHT22;43233;48.608;8.838;2023-03-02T09:06:17;2.00;65.90
32293;DHT22;43233;48.608;8.838;2023-03-02T09:08:43;2.00;65.70
32293;DHT22;43233;48.608;8.838;2023-03-02T09:11:09;2.00;66.20
32293;DHT22;43233;48.608;8.838;2023-03-02T09:13:35;2.10;66.10
32293;DHT22;43233;48.608;8.838;2023-03-02T09:16:01;2.10;65.80
32293;DHT22;43233;48.608;8.838;2023-03-02T09:18:28;2.20;65.60
32293;DHT22;43233;48.608;8.838;2023-03-02T09:20:54;2.30;65.50
32293;DHT22;43233;48.608;8.838;2023-03-02T09:23:23;2.30;65.30
32293;DHT22;43233;48.608;8.838;2023-03-02T09:25:50;2.30;65.60
32293;DHT22;43233;48.608;8.838;2023-03-02T09:28:16;2.40;65.30
32293;DHT22;43233;48.608;8.838;2023-03-02T09:30:48;2.40;66.00
32293;DHT22;43233;48.608;8.838;2023-03-02T09:33:14;2.50;64.90
32293;DHT22;43233;48.608;8.838;2023-03-02T09:35:40;2.60;64.70
32293;DHT22;43233;48.608;8.838;2023-03-02T09:38:05;2.70;64.20
32293;DHT22;43233;48.608;8.838;2023-03-02T09:40:32;2.70;63.90
32293;DHT22;43233;48.608;8.838;2023-03-02T09:46:17;2.80;63.10
32293;DHT22;43233;48.608;8.838;2023-03-02T09:51:49;2.90;63.70
32293;DHT22;43233;48.608;8.838;2023-03-02T09:54:22;2.90;63.40
32293;DHT22;43233;48.608;8.838;2023-03-02T09:56:55;3.00;63.10
32293;DHT22;43233;48.608;8.838;2023-03-02T09:59:31;3.10;62.90
32293;DHT22;43233;48.608;8.838;2023-03-02T10:02:03;3.10;62.60
32293;DHT22;43233;48.608;8.838;2023-03-02T10:04:57;3.10;62.20
32293;DHT22;43233;48.608;8.838;2023-03-02T10:07:31;3.20;61.70
32293;DHT22;43233;48.608;8.838;2023-03-02T10:10:03;3.20;61.30
32293;DHT22;43233;48.608;8.838;2023-03-02T10:15:37;3.30;61.20
32293;DHT22;43233;48.608;8.838;2023-03-02T10:18:34;3.30;61.70
32293;DHT22;43233;48.608;8.838;2023-03-02T10:21:29;3.40;61.90
32293;DHT22;43233;48.608;8.838;2023-03-02T10:26:41;3.50;62.40
32293;DHT22;43233;48.608;8.838;2023-03-02T10:32:30;3.70;61.10
32293;DHT22;43233;48.608;8.838;2023-03-02T10:34:58;3.70;61.40
32293;DHT22;43233;48.608;8.838;2023-03-02T10:37:28;3.70;60.90
32293;DHT22;43233;48.608;8.838;2023-03-02T10:39:54;3.80;61.30
32293;DHT22;43233;48.608;8.838;2023-03-02T10:42:30;3.90;61.40
32293;DHT22;43233;48.608;8.838;2023-03-02T10:45:07;3.90;61.00
32293;DHT22;43233;48.608;8.838;2023-03-02T10:47:33;3.90;61.00
32293;DHT22;43233;48.608;8.838;2023-03-02T10:49:58;4.00;60.50
32293;DHT22;43233;48.608;8.838;2023-03-02T10:52:26;4.00;59.70
32293;DHT22;43233;48.608;8.838;2023-03-02T10:55:11;4.00;59.60
32293;DHT22;43233;48.608;8.838;2023-03-02T10:57:39;4.10;59.70
32293;DHT22;43233;48.608;8.838;2023-03-02T11:00:22;4.10;60.20
32293;DHT22;43233;48.608;8.838;2023-03-02T11:02:54;4.20;59.30
32293;DHT22;43233;48.608;8.838;2023-03-02T11:05:25;4.20;59.20
32293;DHT22;43233;48.608;8.838;2023-03-02T11:07:55;4.30;58.90
32293;DHT22;43233;48.608;8.838;2023-03-02T11:10:23;4.30;59.20
32293;DHT22;43233;48.608;8.838;2023-03-02T11:12:51;4.30;58.70
32293;DHT22;43233;48.608;8.838;2023-03-02T11:18:06;4.30;59.00
32293;DHT22;43233;48.608;8.838;2023-03-02T11:20:36;4.30;58.80
32293;DHT22;43233;48.608;8.838;2023-03-02T11:23:22;4.40;58.80
32293;DHT22;43233;48.608;8.838;2023-03-02T11:25:57;4.40;58.80
32293;DHT22;43233;48.608;8.838;2023-03-02T11:28:32;4.50;58.40
32293;DHT22;43233;48.608;8.838;2023-03-02T11:31:01;4.50;57.60
32293;DHT22;43233;48.608;8.838;2023-03-02T11:33:38;4.50;57.50
32293;DHT22;43233;48.608;8.838;2023-03-02T11:36:19;4.50;57.30
32293;DHT22;43233;48.608;8.838;2023-03-02T11:38:51;4.50;57.80
32293;DHT22;43233;48.608;8.838;2023-03-02T11:41:44;4.50;58.00
32293;DHT22;43233;48.608;8.838;2023-03-02T11:44:16;4.50;58.60
32293;DHT22;43233;48.608;8.838;2023-03-02T11:46:52;4.50;58.90
32293;DHT22;43233;48.608;8.838;2023-03-02T11:49:57;4.60;58.40
32293;DHT22;43233;48.608;8.838;2023-03-02T11:52:27;4.70;57.60
32293;DHT22;43233;48.608;8.838;2023-03-02T11:54:59;4.70;58.10
32293;DHT22;43233;48.608;8.838;2023-03-02T11:57:34;4.80;57.30
32293;DHT22;43233;48.608;8.838;2023-03-02T12:00:02;4.80;56.90
32293;DHT22;43233;48.608;8.838;2023-03-02T12:02:29;4.80;56.90
32293;DHT22;43233;48.608;8.838;2023-03-02T12:05:03;4.80;56.80
32293;DHT22;43233;48.608;8.838;2023-03-02T12:07:29;4.80;56.60
32293;DHT22;43233;48.608;8.838;2023-03-02T12:10:22;4.70;56.60
32293;DHT22;43233;48.608;8.838;2023-03-02T12:13:24;4.40;57.30
32293;DHT22;43233;48.608;8.838;2023-03-02T12:15:49;4.20;58.80
32293;DHT22;43233;48.608;8.838;2023-03-02T12:23:31;4.10;59.80
32293;DHT22;43233;48.608;8.838;2023-03-02T12:34:25;3.90;62.00
32293;DHT22;43233;48.608;8.838;2023-03-02T12:36:58;3.70;62.70
32293;DHT22;43233;48.608;8.838;2023-03-02T12:48:26;3.80;62.80
32293;DHT22;43233;48.608;8.838;2023-03-02T12:51:00;3.80;62.50
32293;DHT22;43233;48.608;8.838;2023-03-02T12:53:27;3.80;62.30
32293;DHT22;43233;48.608;8.838;2023-03-02T12:55:53;3.90;63.80
32293;DHT22;43233;48.608;8.838;2023-03-02T12:58:22;4.10;62.80
32293;DHT22;43233;48.608;8.838;2023-03-02T13:00:53;4.10;61.10
32293;DHT22;43233;48.608;8.838;2023-03-02T13:03:19;4.10;61.30
32293;DHT22;43233;48.608;8.838;2023-03-02T13:05:45;4.10;61.80
32293;DHT22;43233;48.608;8.838;2023-03-02T13:08:17;4.20;62.40
32293;DHT22;43233;48.608;8.838;2023-03-02T13:10:50;4.30;61.10
32293;DHT22;43233;48.608;8.838;2023-03-02T13:13:22;4.40;62.80
32293;DHT22;43233;48.608;8.838;2023-03-02T13:15:50;4.50;62.00
32293;DHT22;43233;48.608;8.838;2023-03-02T13:18:16;4.50;60.00
32293;DHT22;43233;48.608;8.838;2023-03-02T13:20:42;4.40;60.00
32293;DHT22;43233;48.608;8.838;2023-03-02T13:23:12;4.30;60.20
32293;DHT22;43233;48.608;8.838;2023-03-02T13:25:50;4.40;60.40
32293;DHT22;43233;48.608;8.838;2023-03-02T13:28:42;4.30;61.00
32293;DHT22;43233;48.608;8.838;2023-03-02T13:31:17;4.50;60.70
32293;DHT22;43233;48.608;8.838;2023-03-02T13:33:45;4.80;60.00
32293;DHT22;43233;48.608;8.838;2023-03-02T13:36:26;5.20;59.30
32293;DHT22;43233;48.608;8.838;2023-03-02T13:38:56;5.80;56.40
32293;DHT22;43233;48.608;8.838;2023-03-02T13:41:25;6.10;56.10
32293;DHT22;43233;48.608;8.838;2023-03-02T13:43:50;6.30;54.20
32293;DHT22;43233;48.608;8.838;2023-03-02T13:49:05;6.90;52.10
32293;DHT22;43233;48.608;8.838;2023-03-02T13:51:37;7.40;50.50
32293;DHT22;43233;48.608;8.838;2023-03-02T13:54:10;7.80;48.80
32293;DHT22;43233;48.608;8.838;2023-03-02T13:56:38;8.00;48.50
32293;DHT22;43233;48.608;8.838;2023-03-02T13:59:12;8.30;47.90
32293;DHT22;43233;48.608;8.838;2023-03-02T14:01:38;9.00;45.00
32293;DHT22;43233;48.608;8.838;2023-03-02T14:04:08;9.80;44.40
32293;DHT22;43233;48.608;8.838;2023-03-02T14:06:35;10.70;42.50
32293;DHT22;43233;48.608;8.838;2023-03-02T14:09:00;10.60;39.80
32293;DHT22;43233;48.608;8.838;2023-03-02T14:11:30;10.80;40.80
32293;DHT22;43233;48.608;8.838;2023-03-02T14:13:58;10.90;40.80
32293;DHT22;43233;48.608;8.838;2023-03-02T14:16:26;11.80;40.20
32293;DHT22;43233;48.608;8.838;2023-03-02T14:18:52;12.70;36.00
32293;DHT22;43233;48.608;8.838;2023-03-02T14:21:20;13.20;35.10
32293;DHT22;43233;48.608;8.838;2023-03-02T14:23:47;13.20;35.80
32293;DHT22;43233;48.608;8.838;2023-03-02T14:31:35;14.30;31.00
32293;DHT22;43233;48.608;8.838;2023-03-02T14:34:01;13.80;33.80
32293;DHT22;43233;48.608;8.838;2023-03-02T14:36:30;14.50;31.40
32293;DHT22;43233;48.608;8.838;2023-03-02T14:38:59;14.00;32.40
32293;DHT22;43233;48.608;8.838;2023-03-02T14:41:26;14.40;31.90
32293;DHT22;43233;48.608;8.838;2023-03-02T14:43:52;14.60;30.70
32293;DHT22;43233;48.608;8.838;2023-03-02T14:46:18;14.90;31.90
32293;DHT22;43233;48.608;8.838;2023-03-02T14:48:43;15.20;29.60
32293;DHT22;43233;48.608;8.838;2023-03-02T14:53:42;16.80;28.80
32293;DHT22;43233;48.608;8.838;2023-03-02T14:56:10;17.50;27.50
32293;DHT22;43233;48.608;8.838;2023-03-02T14:58:36;18.00;26.60
32293;DHT22;43233;48.608;8.838;2023-03-02T15:01:02;18.30;26.10
32293;DHT22;43233;48.608;8.838;2023-03-02T15:03:28;18.10;25.40
32293;DHT22;43233;48.608;8.838;2023-03-02T15:05:54;18.00;25.60
32293;DHT22;43233;48.608;8.838;2023-03-02T15:08:20;17.90;24.60
32293;DHT22;43233;48.608;8.838;2023-03-02T15:10:47;16.30;27.30
32293;DHT22;43233;48.608;8.838;2023-03-02T15:13:14;16.50;27.80
32293;DHT22;43233;48.608;8.838;2023-03-02T15:15:41;17.00;27.40
32293;DHT22;43233;48.608;8.838;2023-03-02T15:18:08;17.10;26.80
32293;DHT22;43233;48.608;8.838;2023-03-02T15:20:34;16.80;26.80
32293;DHT22;43233;48.608;8.838;2023-03-02T15:22:59;16.30;28.40
32293;DHT22;43233;48.608;8.838;2023-03-02T15:25:25;15.60;28.80
32293;DHT22;43233;48.608;8.838;2023-03-02T15:27:53;15.70;27.80
32293;DHT22;43233;48.608;8.838;2023-03-02T15:30:19;15.70;29.50
32293;DHT22;43233;48.608;8.838;2023-03-02T15:32:45;15.90;28.50
32293;DHT22;43233;48.608;8.838;2023-03-02T15:35:11;16.40;28.30
32293;DHT22;43233;48.608;8.838;2023-03-02T15:37:37;15.80;27.20
32293;DHT22;43233;48.608;8.838;2023-03-02T15:40:03;15.90;28.10
32293;DHT22;43233;48.608;8.838;2023-03-02T15:42:29;15.40;28.90
32293;DHT22;43233;48.608;8.838;2023-03-02T15:44:55;15.00;29.10
32293;DHT22;43233;48.608;8.838;2023-03-02T15:47:21;14.80;29.80
32293;DHT22;43233;48.608;8.838;2023-03-02T15:49:46;14.90;29.00
32293;DHT22;43233;48.608;8.838;2023-03-02T15:52:12;14.80;29.20
32293;DHT22;43233;48.608;8.838;2023-03-02T15:54:38;14.50;30.20
32293;DHT22;43233;48.608;8.838;2023-03-02T15:57:04;14.40;30.60
32293;DHT22;43233;48.608;8.838;2023-03-02T15:59:30;14.00;31.80
32293;DHT22;43233;48.608;8.838;2023-03-02T16:01:56;13.60;31.90
32293;DHT22;43233;48.608;8.838;2023-03-02T16:04:28;13.10;32.60
32293;DHT22;43233;48.608;8.838;2023-03-02T16:06:54;12.50;34.60
32293;DHT22;43233;48.608;8.838;2023-03-02T16:09:24;12.40;34.80
32293;DHT22;43233;48.608;8.838;2023-03-02T16:11:50;12.40;34.60
32293;DHT22;43233;48.608;8.838;2023-03-02T16:14:17;12.60;34.30
32293;DHT22;43233;48.608;8.838;2023-03-02T16:16:44;12.80;34.00
32293;DHT22;43233;48.608;8.838;2023-03-02T16:19:11;12.80;34.40
32293;DHT22;43233;48.608;8.838;2023-03-02T16:21:37;12.60;34.00
32293;DHT22;43233;48.608;8.838;2023-03-02T16:24:04;12.40;34.10
32293;DHT22;43233;48.608;8.838;2023-03-02T16:26:31;11.90;35.20
32293;DHT22;43233;48.608;8.838;2023-03-02T16:28:58;11.60;35.80
32293;DHT22;43233;48.608;8.838;2023-03-02T16:31:24;11.50;36.00
32293;DHT22;43233;48.608;8.838;2023-03-02T16:33:54;11.30;36.30
32293;DHT22;43233;48.608;8.838;2023-03-02T16:36:21;11.10;36.70
32293;DHT22;43233;48.608;8.838;2023-03-02T16:38:47;11.00;37.20
32293;DHT22;43233;48.608;8.838;2023-03-02T16:41:15;10.90;37.40
32293;DHT22;43233;48.608;8.838;2023-03-02T16:43:49;10.60;37.60
32293;DHT22;43233;48.608;8.838;2023-03-02T16:46:17;10.40;38.00
32293;DHT22;43233;48.608;8.838;2023-03-02T16:48:44;10.10;38.60